sensor_id;sensor_type;location;lat;lon;timestamp;temperature;humidity
2825;DHT22;1420;51.324;12.344;2023-06-04T00:02:05;11.80;45.30
2825;DHT22;1420;51.324;12.344;2023-06-04T00:04:32;11.90;45.40
2825;DHT22;1420;51.324;12.344;2023-06-04T00:06:59;11.80;45.50
2825;DHT22;1420;51.324;12.344;2023-06-04T00:09:26;11.70;45.70
2825;DHT22;1420;51.324;12.344;2023-06-04T00:11:54;11.70;45.90
2825;DHT22;1420;51.324;12.344;2023-06-04T00:14:21;11.60;46.10
2825;DHT22;1420;51.324;12.344;2023-06-04T00:16:48;11.60;46.30
2825;DHT22;1420;51.324;12.344;2023-06-04T00:19:16;11.50;46.80
2825;DHT22;1420;51.324;12.344;2023-06-04T00:21:44;11.40;47.30
2825;DHT22;1420;51.324;12.344;2023-06-04T00:24:11;11.40;47.20
2825;DHT22;1420;51.324;12.344;2023-06-04T00:26:39;11.30;47.80
2825;DHT22;1420;51.324;12.344;2023-06-04T00:29:07;11.30;48.20
2825;DHT22;1420;51.324;12.344;2023-06-04T00:31:34;11.20;48.40
2825;DHT22;1420;51.324;12.344;2023-06-04T00:34:02;11.10;48.90
2825;DHT22;1420;51.324;12.344;2023-06-04T00:36:28;11.10;49.40
2825;DHT22;1420;51.324;12.344;2023-06-04T00:38:56;11.00;49.80
2825;DHT22;1420;51.324;12.344;2023-06-04T00:41:23;11.00;49.80
2825;DHT22;1420;51.324;12.344;2023-06-04T00:43:51;10.90;50.00
2825;DHT22;1420;51.324;12.344;2023-06-04T00:46:25;11.10;50.50
2825;DHT22;1420;51.324;12.344;2023-06-04T00:48:52;10.90;51.00
2825;DHT22;1420;51.324;12.344;2023-06-04T00:51:20;10.80;50.80
2825;DHT22;1420;51.324;12.344;2023-06-04T00:53:50;11.00;50.80
2825;DHT22;1420;51.324;12.344;2023-06-04T00:56:17;10.90;51.10
2825;DHT22;1420;51.324;12.344;2023-06-04T00:58:45;10.70;52.00
2825;DHT22;1420;51.324;12.344;2023-06-04T01:03:55;10.80;51.70
2825;DHT22;1420;51.324;12.344;2023-06-04T01:06:38;10.80;52.30
2825;DHT22;1420;51.324;12.344;2023-06-04T01:09:03;10.80;52.30
2825;DHT22;1420;51.324;12.344;2023-06-04T01:11:34;10.80;52.50
2825;DHT22;1420;51.324;12.344;2023-06-04T01:14:01;10.70;53.60
2825;DHT22;1420;51.324;12.344;2023-06-04T01:16:30;10.60;55.00
2825;DHT22;1420;51.324;12.344;2023-06-04T01:18:57;10.60;55.00
2825;DHT22;1420;51.324;12.344;2023-06-04T01:21:24;10.30;56.70
2825;DHT22;1420;51.324;12.344;2023-06-04T01:23:54;10.30;57.50
2825;DHT22;1420;51.324;12.344;2023-06-04T01:26:27;10.30;57.50
2825;DHT22;1420;51.324;12.344;2023-06-04T01:28:56;10.30;59.90
2825;DHT22;1420;51.324;12.344;2023-06-04T01:31:23;10.20;59.80
2825;DHT22;1420;51.324;12.344;2023-06-04T01:33:51;10.30;60.00
2825;DHT22;1420;51.324;12.344;2023-06-04T01:36:18;10.40;61.80
2825;DHT22;1420;51.324;12.344;2023-06-04T01:38:45;10.40;63.60
2825;DHT22;1420;51.324;12.344;2023-06-04T01:41:12;10.50;64.70
2825;DHT22;1420;51.324;12.344;2023-06-04T01:43:39;10.50;65.10
2825;DHT22;1420;51.324;12.344;2023-06-04T01:46:07;10.60;66.20
2825;DHT22;1420;51.324;12.344;2023-06-04T01:48:35;10.80;65.90
2825;DHT22;1420;51.324;12.344;2023-06-04T01:51:02;10.80;65.90
2825;DHT22;1420;51.324;12.344;2023-06-04T01:53:29;10.80;66.40
2825;DHT22;1420;51.324;12.344;2023-06-04T01:55:56;10.60;67.80
2825;DHT22;1420;51.324;12.344;2023-06-04T01:58:24;10.30;70.00
2825;DHT22;1420;51.324;12.344;2023-06-04T02:00:51;10.30;72.20
2825;DHT22;1420;51.324;12.344;2023-06-04T02:03:18;10.20;72.90
2825;DHT22;1420;51.324;12.344;2023-06-04T02:05:45;10.00;72.60
2825;DHT22;1420;51.324;12.344;2023-06-04T02:08:15;9.90;75.20
2825;DHT22;1420;51.324;12.344;2023-06-04T02:10:41;9.90;75.10
2825;DHT22;1420;51.324;12.344;2023-06-04T02:13:08;9.90;75.70
2825;DHT22;1420;51.324;12.344;2023-06-04T02:15:36;9.90;75.90
2825;DHT22;1420;51.324;12.344;2023-06-04T02:18:11;10.20;74.00
2825;DHT22;1420;51.324;12.344;2023-06-04T02:20:37;10.20;74.80
2825;DHT22;1420;51.324;12.344;2023-06-04T02:23:04;10.20;77.30
2825;DHT22;1420;51.324;12.344;2023-06-04T02:25:32;10.20;77.50
2825;DHT22;1420;51.324;12.344;2023-06-04T02:28:00;10.20;78.30
2825;DHT22;1420;51.324;12.344;2023-06-04T02:30:28;10.10;78.10
2825;DHT22;1420;51.324;12.344;2023-06-04T02:32:56;10.20;78.60
2825;DHT22;1420;51.324;12.344;2023-06-04T02:35:24;10.20;77.70
2825;DHT22;1420;51.324;12.344;2023-06-04T02:37:51;10.10;77.60
2825;DHT22;1420;51.324;12.344;2023-06-04T02:40:18;10.00;78.80
2825;DHT22;1420;51.324;12.344;2023-06-04T02:42:45;9.90;81.70
2825;DHT22;1420;51.324;12.344;2023-06-04T02:45:12;9.80;82.30
2825;DHT22;1420;51.324;12.344;2023-06-04T02:47:40;9.70;84.20
2825;DHT22;1420;51.324;12.344;2023-06-04T02:50:07;9.60;83.80
2825;DHT22;1420;51.324;12.344;2023-06-04T02:52:34;9.60;84.60
2825;DHT22;1420;51.324;12.344;2023-06-04T02:55:02;9.70;84.20
2825;DHT22;1420;51.324;12.344;2023-06-04T02:57:30;9.60;83.70
2825;DHT22;1420;51.324;12.344;2023-06-04T02:59:59;9.70;84.90
2825;DHT22;1420;51.324;12.344;2023-06-04T03:02:26;9.60;84.70
2825;DHT22;1420;51.324;12.344;2023-06-04T03:04:53;9.60;84.00
2825;DHT22;1420;51.324;12.344;2023-06-04T03:07:21;9.40;85.20
2825;DHT22;1420;51.324;12.344;2023-06-04T03:09:48;9.40;87.20
2825;DHT22;1420;51.324;12.344;2023-06-04T03:12:15;9.40;89.80
2825;DHT22;1420;51.324;12.344;2023-06-04T03:14:42;9.30;90.50
2825;DHT22;1420;51.324;12.344;2023-06-04T03:17:09;9.40;90.00
2825;DHT22;1420;51.324;12.344;2023-06-04T03:19:37;9.30;91.10
2825;DHT22;1420;51.324;12.344;2023-06-04T03:22:05;9.40;91.30
2825;DHT22;1420;51.324;12.344;2023-06-04T03:24:34;9.50;92.00
2825;DHT22;1420;51.324;12.344;2023-06-04T03:27:01;9.50;92.00
2825;DHT22;1420;51.324;12.344;2023-06-04T03:29:28;9.50;91.00
2825;DHT22;1420;51.324;12.344;2023-06-04T03:31:55;9.60;91.70
2825;DHT22;1420;51.324;12.344;2023-06-04T03:34:22;9.60;91.30
2825;DHT22;1420;51.324;12.344;2023-06-04T03:36:54;9.60;91.50
2825;DHT22;1420;51.324;12.344;2023-06-04T03:39:21;9.70;91.70
2825;DHT22;1420;51.324;12.344;2023-06-04T03:41:48;9.70;91.70
2825;DHT22;1420;51.324;12.344;2023-06-04T03:44:16;9.70;92.10
2825;DHT22;1420;51.324;12.344;2023-06-04T03:46:43;9.60;92.00
2825;DHT22;1420;51.324;12.344;2023-06-04T03:49:10;9.70;92.20
2825;DHT22;1420;51.324;12.344;2023-06-04T03:51:38;9.80;92.20
2825;DHT22;1420;51.324;12.344;2023-06-04T03:54:06;10.10;88.80
2825;DHT22;1420;51.324;12.344;2023-06-04T03:56:34;10.10;87.40
2825;DHT22;1420;51.324;12.344;2023-06-04T03:59:01;10.00;87.20
2825;DHT22;1420;51.324;12.344;2023-06-04T04:01:28;10.10;86.80
2825;DHT22;1420;51.324;12.344;2023-06-04T04:03:55;10.20;88.40
2825;DHT22;1420;51.324;12.344;2023-06-04T04:06:23;10.20;87.20
2825;DHT22;1420;51.324;12.344;2023-06-04T04:08:50;10.20;86.80
2825;DHT22;1420;51.324;12.344;2023-06-04T04:11:17;10.30;87.70
2825;DHT22;1420;51.324;12.344;2023-06-04T04:13:44;10.30;90.30
2825;DHT22;1420;51.324;12.344;2023-06-04T04:16:12;10.30;92.20
2825;DHT22;1420;51.324;12.344;2023-06-04T04:18:41;10.40;90.60
2825;DHT22;1420;51.324;12.344;2023-06-04T04:21:08;10.40;90.50
2825;DHT22;1420;51.324;12.344;2023-06-04T04:23:37;10.40;90.30
2825;DHT22;1420;51.324;12.344;2023-06-04T04:26:03;10.40;91.00
2825;DHT22;1420;51.324;12.344;2023-06-04T04:28:30;10.50;91.50
2825;DHT22;1420;51.324;12.344;2023-06-04T04:30:57;10.60;87.10
2825;DHT22;1420;51.324;12.344;2023-06-04T04:33:24;10.60;87.30
2825;DHT22;1420;51.324;12.344;2023-06-04T04:35:52;10.60;84.60
2825;DHT22;1420;51.324;12.344;2023-06-04T04:38:20;10.70;82.70
2825;DHT22;1420;51.324;12.344;2023-06-04T04:40:47;10.70;82.90
2825;DHT22;1420;51.324;12.344;2023-06-04T04:43:15;10.90;82.50
2825;DHT22;1420;51.324;12.344;2023-06-04T04:45:42;10.90;82.40
2825;DHT22;1420;51.324;12.344;2023-06-04T04:48:09;11.00;82.40
2825;DHT22;1420;51.324;12.344;2023-06-04T04:50:36;11.00;84.00
2825;DHT22;1420;51.324;12.344;2023-06-04T04:53:04;11.10;84.50
2825;DHT22;1420;51.324;12.344;2023-06-04T04:55:31;11.10;84.80
2825;DHT22;1420;51.324;12.344;2023-06-04T04:57:58;11.10;86.20
2825;DHT22;1420;51.324;12.344;2023-06-04T05:00:25;11.20;86.50
2825;DHT22;1420;51.324;12.344;2023-06-04T05:02:53;11.20;87.10
2825;DHT22;1420;51.324;12.344;2023-06-04T05:05:20;11.20;88.70
2825;DHT22;1420;51.324;12.344;2023-06-04T05:07:47;11.40;83.30
2825;DHT22;1420;51.324;12.344;2023-06-04T05:10:14;11.50;83.20
2825;DHT22;1420;51.324;12.344;2023-06-04T05:12:57;11.70;81.60
2825;DHT22;1420;51.324;12.344;2023-06-04T05:15:24;11.70;81.30
2825;DHT22;1420;51.324;12.344;2023-06-04T05:17:51;11.90;79.40
2825;DHT22;1420;51.324;12.344;2023-06-04T05:20:18;12.00;79.70
2825;DHT22;1420;51.324;12.344;2023-06-04T05:22:45;12.00;80.50
2825;DHT22;1420;51.324;12.344;2023-06-04T05:25:13;12.10;78.70
2825;DHT22;1420;51.324;12.344;2023-06-04T05:27:40;12.10;78.60
2825;DHT22;1420;51.324;12.344;2023-06-04T05:30:08;12.20;79.40
2825;DHT22;1420;51.324;12.344;2023-06-04T05:32:35;12.40;77.40
2825;DHT22;1420;51.324;12.344;2023-06-04T05:35:03;12.40;76.80
2825;DHT22;1420;51.324;12.344;2023-06-04T05:37:30;12.50;74.30
2825;DHT22;1420;51.324;12.344;2023-06-04T05:39:57;12.50;72.50
2825;DHT22;1420;51.324;12.344;2023-06-04T05:42:24;12.60;71.40
2825;DHT22;1420;51.324;12.344;2023-06-04T05:44:51;12.80;70.10
2825;DHT22;1420;51.324;12.344;2023-06-04T05:47:19;13.00;67.60
2825;DHT22;1420;51.324;12.344;2023-06-04T05:49:46;13.70;64.90
2825;DHT22;1420;51.324;12.344;2023-06-04T05:52:13;14.60;60.30
2825;DHT22;1420;51.324;12.344;2023-06-04T05:54:40;15.00;57.00
2825;DHT22;1420;51.324;12.344;2023-06-04T05:57:07;15.50;55.60
2825;DHT22;1420;51.324;12.344;2023-06-04T05:59:35;16.10;52.90
2825;DHT22;1420;51.324;12.344;2023-06-04T06:02:02;16.50;50.90
2825;DHT22;1420;51.324;12.344;2023-06-04T06:04:29;16.90;49.30
2825;DHT22;1420;51.324;12.344;2023-06-04T06:06:57;17.60;46.40
2825;DHT22;1420;51.324;12.344;2023-06-04T06:09:24;17.50;46.30
2825;DHT22;1420;51.324;12.344;2023-06-04T06:11:52;17.60;46.10
2825;DHT22;1420;51.324;12.344;2023-06-04T06:14:19;18.40;44.70
2825;DHT22;1420;51.324;12.344;2023-06-04T06:16:47;18.50;43.10
2825;DHT22;1420;51.324;12.344;2023-06-04T06:19:14;18.50;43.00
2825;DHT22;1420;51.324;12.344;2023-06-04T06:21:41;19.10;41.80
2825;DHT22;1420;51.324;12.344;2023-06-04T06:24:08;19.00;41.40
2825;DHT22;1420;51.324;12.344;2023-06-04T06:26:36;19.40;41.00
2825;DHT22;1420;51.324;12.344;2023-06-04T06:29:03;19.80;39.70
2825;DHT22;1420;51.324;12.344;2023-06-04T06:31:31;19.80;39.60
2825;DHT22;1420;51.324;12.344;2023-06-04T06:33:58;19.80;39.50
2825;DHT22;1420;51.324;12.344;2023-06-04T06:36:25;20.50;38.10
2825;DHT22;1420;51.324;12.344;2023-06-04T06:38:53;20.90;36.90
2825;DHT22;1420;51.324;12.344;2023-06-04T06:41:21;20.10;37.90
2825;DHT22;1420;51.324;12.344;2023-06-04T06:43:48;20.10;37.80
2825;DHT22;1420;51.324;12.344;2023-06-04T06:46:15;20.30;38.00
2825;DHT22;1420;51.324;12.344;2023-06-04T06:48:42;21.10;36.50
2825;DHT22;1420;51.324;12.344;2023-06-04T06:51:11;21.90;34.70
2825;DHT22;1420;51.324;12.344;2023-06-04T06:53:37;21.90;34.70
2825;DHT22;1420;51.324;12.344;2023-06-04T06:56:05;21.50;34.60
2825;DHT22;1420;51.324;12.344;2023-06-04T06:58:33;21.70;34.10
2825;DHT22;1420;51.324;12.344;2023-06-04T07:01:01;21.50;34.10
2825;DHT22;1420;51.324;12.344;2023-06-04T07:03:28;21.50;34.00
2825;DHT22;1420;51.324;12.344;2023-06-04T07:05:55;22.20;32.70
2825;DHT22;1420;51.324;12.344;2023-06-04T07:08:22;22.10;33.40
2825;DHT22;1420;51.324;12.344;2023-06-04T07:10:49;22.30;33.40
2825;DHT22;1420;51.324;12.344;2023-06-04T07:13:17;22.20;32.30
2825;DHT22;1420;51.324;12.344;2023-06-04T07:15:44;22.90;32.70
2825;DHT22;1420;51.324;12.344;2023-06-04T07:18:12;22.80;31.70
2825;DHT22;1420;51.324;12.344;2023-06-04T07:20:39;22.70;31.60
2825;DHT22;1420;51.324;12.344;2023-06-04T07:23:06;22.40;29.50
2825;DHT22;1420;51.324;12.344;2023-06-04T07:25:34;22.50;29.60
2825;DHT22;1420;51.324;12.344;2023-06-04T07:28:01;23.00;28.50
2825;DHT22;1420;51.324;12.344;2023-06-04T07:30:28;23.40;28.00
2825;DHT22;1420;51.324;12.344;2023-06-04T07:32:55;23.40;27.40
2825;DHT22;1420;51.324;12.344;2023-06-04T07:35:23;23.00;28.30
2825;DHT22;1420;51.324;12.344;2023-06-04T07:37:50;22.80;28.20
2825;DHT22;1420;51.324;12.344;2023-06-04T07:40:17;23.40;27.70
2825;DHT22;1420;51.324;12.344;2023-06-04T07:42:45;23.50;28.00
2825;DHT22;1420;51.324;12.344;2023-06-04T07:45:12;23.40;27.90
2825;DHT22;1420;51.324;12.344;2023-06-04T07:47:39;23.90;26.60
2825;DHT22;1420;51.324;12.344;2023-06-04T07:50:07;23.80;27.20
2825;DHT22;1420;51.324;12.344;2023-06-04T07:52:34;24.00;26.90
2825;DHT22;1420;51.324;12.344;2023-06-04T07:55:01;24.40;25.80
2825;DHT22;1420;51.324;12.344;2023-06-04T07:57:29;23.20;26.20
2825;DHT22;1420;51.324;12.344;2023-06-04T07:59:56;22.90;27.30
2825;DHT22;1420;51.324;12.344;2023-06-04T08:02:23;23.00;26.20
2825;DHT22;1420;51.324;12.344;2023-06-04T08:04:50;22.50;26.80
2825;DHT22;1420;51.324;12.344;2023-06-04T08:07:18;22.70;27.20
2825;DHT22;1420;51.324;12.344;2023-06-04T08:09:45;23.40;26.90
2825;DHT22;1420;51.324;12.344;2023-06-04T08:12:12;23.80;26.40
2825;DHT22;1420;51.324;12.344;2023-06-04T08:14:39;23.30;24.40
2825;DHT22;1420;51.324;12.344;2023-06-04T08:17:07;22.40;25.60
2825;DHT22;1420;51.324;12.344;2023-06-04T08:19:35;22.40;25.60
2825;DHT22;1420;51.324;12.344;2023-06-04T08:22:02;22.60;26.50
2825;DHT22;1420;51.324;12.344;2023-06-04T08:24:29;22.50;25.80
2825;DHT22;1420;51.324;12.344;2023-06-04T08:26:56;22.80;27.10
2825;DHT22;1420;51.324;12.344;2023-06-04T08:29:23;22.90;25.20
2825;DHT22;1420;51.324;12.344;2023-06-04T08:31:51;22.70;24.90
2825;DHT22;1420;51.324;12.344;2023-06-04T08:34:18;22.10;25.40
2825;DHT22;1420;51.324;12.344;2023-06-04T08:36:45;22.40;24.80
2825;DHT22;1420;51.324;12.344;2023-06-04T08:39:12;22.30;24.90
2825;DHT22;1420;51.324;12.344;2023-06-04T08:41:45;22.90;24.20
2825;DHT22;1420;51.324;12.344;2023-06-04T08:44:11;22.80;24.10
2825;DHT22;1420;51.324;12.344;2023-06-04T08:46:39;22.90;24.20
2825;DHT22;1420;51.324;12.344;2023-06-04T08:49:06;22.80;24.10
2825;DHT22;1420;51.324;12.344;2023-06-04T08:51:34;22.90;25.00
2825;DHT22;1420;51.324;12.344;2023-06-04T08:54:01;22.40;24.60
2825;DHT22;1420;51.324;12.344;2023-06-04T08:56:28;22.60;24.70
2825;DHT22;1420;51.324;12.344;2023-06-04T08:58:57;23.90;24.50
2825;DHT22;1420;51.324;12.344;2023-06-04T09:01:24;23.10;24.40
2825;DHT22;1420;51.324;12.344;2023-06-04T09:03:52;23.10;24.40
2825;DHT22;1420;51.324;12.344;2023-06-04T09:06:19;23.10;24.10
2825;DHT22;1420;51.324;12.344;2023-06-04T09:08:46;23.00;23.70
2825;DHT22;1420;51.324;12.344;2023-06-04T09:11:13;23.60;23.70
2825;DHT22;1420;51.324;12.344;2023-06-04T09:13:40;24.20;23.20
2825;DHT22;1420;51.324;12.344;2023-06-04T09:16:08;24.00;23.50
2825;DHT22;1420;51.324;12.344;2023-06-04T09:18:36;23.70;24.10
2825;DHT22;1420;51.324;12.344;2023-06-04T09:21:04;23.60;24.00
2825;DHT22;1420;51.324;12.344;2023-06-04T09:23:34;23.50;24.30
2825;DHT22;1420;51.324;12.344;2023-06-04T09:26:07;23.40;23.40
2825;DHT22;1420;51.324;12.344;2023-06-04T09:28:34;23.40;22.90
2825;DHT22;1420;51.324;12.344;2023-06-04T09:31:01;23.90;23.90
2825;DHT22;1420;51.324;12.344;2023-06-04T09:33:28;24.00;23.60
2825;DHT22;1420;51.324;12.344;2023-06-04T09:35:57;23.30;24.70
2825;DHT22;1420;51.324;12.344;2023-06-04T09:38:39;23.20;24.70
2825;DHT22;1420;51.324;12.344;2023-06-04T09:41:15;23.80;23.70
2825;DHT22;1420;51.324;12.344;2023-06-04T09:43:41;24.30;23.90
2825;DHT22;1420;51.324;12.344;2023-06-04T09:46:11;23.80;23.70
2825;DHT22;1420;51.324;12.344;2023-06-04T09:48:38;23.70;23.80
2825;DHT22;1420;51.324;12.344;2023-06-04T09:51:10;23.50;23.80
2825;DHT22;1420;51.324;12.344;2023-06-04T09:53:38;23.50;23.80
2825;DHT22;1420;51.324;12.344;2023-06-04T09:56:05;23.80;24.50
2825;DHT22;1420;51.324;12.344;2023-06-04T09:58:35;24.20;23.30
2825;DHT22;1420;51.324;12.344;2023-06-04T10:01:04;23.90;23.30
2825;DHT22;1420;51.324;12.344;2023-06-04T10:03:33;23.90;23.20
2825;DHT22;1420;51.324;12.344;2023-06-04T10:06:01;24.10;23.20
2825;DHT22;1420;51.324;12.344;2023-06-04T10:08:27;23.60;23.20
2825;DHT22;1420;51.324;12.344;2023-06-04T10:10:55;23.40;23.80
2825;DHT22;1420;51.324;12.344;2023-06-04T10:13:23;24.30;23.90
2825;DHT22;1420;51.324;12.344;2023-06-04T10:15:50;24.20;23.80
2825;DHT22;1420;51.324;12.344;2023-06-04T10:18:17;24.40;22.50
2825;DHT22;1420;51.324;12.344;2023-06-04T10:20:44;25.00;22.60
2825;DHT22;1420;51.324;12.344;2023-06-04T10:23:12;24.60;21.70
2825;DHT22;1420;51.324;12.344;2023-06-04T10:25:39;24.40;22.00
2825;DHT22;1420;51.324;12.344;2023-06-04T10:28:06;24.10;22.80
2825;DHT22;1420;51.324;12.344;2023-06-04T10:30:34;23.90;21.70
2825;DHT22;1420;51.324;12.344;2023-06-04T10:33:01;24.10;21.80
2825;DHT22;1420;51.324;12.344;2023-06-04T10:35:32;24.50;21.90
2825;DHT22;1420;51.324;12.344;2023-06-04T10:38:11;24.70;21.30
2825;DHT22;1420;51.324;12.344;2023-06-04T10:40:38;24.70;21.40
2825;DHT22;1420;51.324;12.344;2023-06-04T10:43:08;23.80;21.90
2825;DHT22;1420;51.324;12.344;2023-06-04T10:45:34;23.80;21.90
2825;DHT22;1420;51.324;12.344;2023-06-04T10:48:03;23.60;21.50
2825;DHT22;1420;51.324;12.344;2023-06-04T10:50:31;23.60;21.50
2825;DHT22;1420;51.324;12.344;2023-06-04T10:52:57;23.90;20.50
2825;DHT22;1420;51.324;12.344;2023-06-04T10:55:24;24.60;20.90
2825;DHT22;1420;51.324;12.344;2023-06-04T10:57:54;24.30;20.60
2825;DHT22;1420;51.324;12.344;2023-06-04T11:00:20;24.20;20.40
2825;DHT22;1420;51.324;12.344;2023-06-04T11:02:55;24.00;20.70
2825;DHT22;1420;51.324;12.344;2023-06-04T11:05:33;23.40;20.50
2825;DHT22;1420;51.324;12.344;2023-06-04T11:07:50;23.30;20.30
2825;DHT22;1420;51.324;12.344;2023-06-04T11:10:17;23.20;20.10
2825;DHT22;1420;51.324;12.344;2023-06-04T11:12:46;23.30;20.80
2825;DHT22;1420;51.324;12.344;2023-06-04T11:15:13;23.30;21.00
2825;DHT22;1420;51.324;12.344;2023-06-04T11:17:49;23.90;20.50
2825;DHT22;1420;51.324;12.344;2023-06-04T11:20:16;23.90;20.90
2825;DHT22;1420;51.324;12.344;2023-06-04T11:22:49;23.90;20.90
2825;DHT22;1420;51.324;12.344;2023-06-04T11:25:10;24.20;20.70
2825;DHT22;1420;51.324;12.344;2023-06-04T11:27:37;23.80;20.40
2825;DHT22;1420;51.324;12.344;2023-06-04T11:30:07;23.60;20.70
2825;DHT22;1420;51.324;12.344;2023-06-04T11:32:34;23.60;20.30
2825;DHT22;1420;51.324;12.344;2023-06-04T11:35:04;23.60;20.60
2825;DHT22;1420;51.324;12.344;2023-06-04T11:37:31;22.80;20.30
2825;DHT22;1420;51.324;12.344;2023-06-04T11:39:59;22.20;20.50
2825;DHT22;1420;51.324;12.344;2023-06-04T11:42:27;22.20;20.40
2825;DHT22;1420;51.324;12.344;2023-06-04T11:44:56;22.20;20.70
2825;DHT22;1420;51.324;12.344;2023-06-04T11:47:23;22.40;19.20
2825;DHT22;1420;51.324;12.344;2023-06-04T11:49:55;22.40;19.00
2825;DHT22;1420;51.324;12.344;2023-06-04T11:52:23;22.70;20.20
2825;DHT22;1420;51.324;12.344;2023-06-04T11:54:50;22.70;20.20
2825;DHT22;1420;51.324;12.344;2023-06-04T11:57:17;23.00;20.50
2825;DHT22;1420;51.324;12.344;2023-06-04T11:59:45;22.40;20.20
2825;DHT22;1420;51.324;12.344;2023-06-04T12:02:12;22.70;19.80
2825;DHT22;1420;51.324;12.344;2023-06-04T12:04:39;23.00;20.30
2825;DHT22;1420;51.324;12.344;2023-06-04T12:07:06;23.20;19.80
2825;DHT22;1420;51.324;12.344;2023-06-04T12:09:34;23.00;19.10
2825;DHT22;1420;51.324;12.344;2023-06-04T12:12:02;23.00;20.10
2825;DHT22;1420;51.324;12.344;2023-06-04T12:14:29;23.00;20.50
2825;DHT22;1420;51.324;12.344;2023-06-04T12:17:01;22.90;19.90
2825;DHT22;1420;51.324;12.344;2023-06-04T12:19:27;23.20;20.10
2825;DHT22;1420;51.324;12.344;2023-06-04T12:22:01;23.10;19.70
2825;DHT22;1420;51.324;12.344;2023-06-04T12:24:28;23.00;19.00
2825;DHT22;1420;51.324;12.344;2023-06-04T12:27:02;23.00;18.90
2825;DHT22;1420;51.324;12.344;2023-06-04T12:29:29;22.90;20.00
2825;DHT22;1420;51.324;12.344;2023-06-04T12:32:03;23.00;19.40
2825;DHT22;1420;51.324;12.344;2023-06-04T12:34:29;22.90;19.90
2825;DHT22;1420;51.324;12.344;2023-06-04T12:36:57;23.10;20.10
2825;DHT22;1420;51.324;12.344;2023-06-04T12:39:24;23.10;20.00
2825;DHT22;1420;51.324;12.344;2023-06-04T12:41:52;23.30;20.90
2825;DHT22;1420;51.324;12.344;2023-06-04T12:44:19;23.10;20.10
2825;DHT22;1420;51.324;12.344;2023-06-04T12:46:47;23.30;20.00
2825;DHT22;1420;51.324;12.344;2023-06-04T12:49:14;23.20;19.90
2825;DHT22;1420;51.324;12.344;2023-06-04T12:51:41;23.40;19.60
2825;DHT22;1420;51.324;12.344;2023-06-04T12:54:09;23.40;18.50
2825;DHT22;1420;51.324;12.344;2023-06-04T12:56:35;23.80;19.70
2825;DHT22;1420;51.324;12.344;2023-06-04T12:59:03;23.60;18.90
2825;DHT22;1420;51.324;12.344;2023-06-04T13:01:30;23.50;19.00
2825;DHT22;1420;51.324;12.344;2023-06-04T13:03:58;24.00;19.40
2825;DHT22;1420;51.324;12.344;2023-06-04T13:06:25;23.90;19.20
2825;DHT22;1420;51.324;12.344;2023-06-04T13:08:52;23.40;19.00
2825;DHT22;1420;51.324;12.344;2023-06-04T13:11:25;23.20;20.20
2825;DHT22;1420;51.324;12.344;2023-06-04T13:13:52;23.10;20.50
2825;DHT22;1420;51.324;12.344;2023-06-04T13:16:19;23.00;20.00
2825;DHT22;1420;51.324;12.344;2023-06-04T13:18:46;23.10;19.80
2825;DHT22;1420;51.324;12.344;2023-06-04T13:21:13;23.30;19.70
2825;DHT22;1420;51.324;12.344;2023-06-04T13:23:47;23.40;20.60
2825;DHT22;1420;51.324;12.344;2023-06-04T13:26:17;23.40;19.80
2825;DHT22;1420;51.324;12.344;2023-06-04T13:28:59;23.30;18.70
2825;DHT22;1420;51.324;12.344;2023-06-04T13:31:29;23.30;18.90
2825;DHT22;1420;51.324;12.344;2023-06-04T13:33:56;23.50;18.90
2825;DHT22;1420;51.324;12.344;2023-06-04T13:36:23;23.50;18.90
2825;DHT22;1420;51.324;12.344;2023-06-04T13:38:51;23.30;18.00
2825;DHT22;1420;51.324;12.344;2023-06-04T13:41:18;23.50;18.20
2825;DHT22;1420;51.324;12.344;2023-06-04T13:43:45;23.40;18.40
2825;DHT22;1420;51.324;12.344;2023-06-04T13:46:12;23.20;18.00
2825;DHT22;1420;51.324;12.344;2023-06-04T13:48:39;23.00;18.60
2825;DHT22;1420;51.324;12.344;2023-06-04T13:51:07;23.00;18.60
2825;DHT22;1420;51.324;12.344;2023-06-04T13:53:34;23.00;18.20
2825;DHT22;1420;51.324;12.344;2023-06-04T13:56:01;23.10;18.70
2825;DHT22;1420;51.324;12.344;2023-06-04T13:58:29;23.40;18.30
2825;DHT22;1420;51.324;12.344;2023-06-04T14:00:57;23.30;18.20
2825;DHT22;1420;51.324;12.344;2023-06-04T14:03:24;23.20;18.60
2825;DHT22;1420;51.324;12.344;2023-06-04T14:05:51;23.10;18.30
2825;DHT22;1420;51.324;12.344;2023-06-04T14:08:18;23.00;18.70
2825;DHT22;1420;51.324;12.344;2023-06-04T14:10:45;23.10;18.70
2825;DHT22;1420;51.324;12.344;2023-06-04T14:13:13;23.00;18.90
2825;DHT22;1420;51.324;12.344;2023-06-04T14:15:40;23.00;18.50
2825;DHT22;1420;51.324;12.344;2023-06-04T14:18:07;22.90;18.80
2825;DHT22;1420;51.324;12.344;2023-06-04T14:20:34;23.10;19.30
2825;DHT22;1420;51.324;12.344;2023-06-04T14:23:02;23.30;18.50
2825;DHT22;1420;51.324;12.344;2023-06-04T14:25:30;23.20;18.90
2825;DHT22;1420;51.324;12.344;2023-06-04T14:27:57;23.20;18.80
2825;DHT22;1420;51.324;12.344;2023-06-04T14:30:24;23.40;18.40
2825;DHT22;1420;51.324;12.344;2023-06-04T14:32:51;23.30;17.70
2825;DHT22;1420;51.324;12.344;2023-06-04T14:35:18;23.10;17.50
2825;DHT22;1420;51.324;12.344;2023-06-04T14:37:46;23.00;18.50
2825;DHT22;1420;51.324;12.344;2023-06-04T14:40:13;23.00;18.50
2825;DHT22;1420;51.324;12.344;2023-06-04T14:42:43;23.00;18.30
2825;DHT22;1420;51.324;12.344;2023-06-04T14:45:10;23.20;19.00
2825;DHT22;1420;51.324;12.344;2023-06-04T14:47:37;23.10;19.20
2825;DHT22;1420;51.324;12.344;2023-06-04T14:50:05;23.00;19.40
2825;DHT22;1420;51.324;12.344;2023-06-04T14:52:32;22.70;19.20
2825;DHT22;1420;51.324;12.344;2023-06-04T14:55:00;22.70;19.60
2825;DHT22;1420;51.324;12.344;2023-06-04T14:57:27;22.90;20.10
2825;DHT22;1420;51.324;12.344;2023-06-04T14:59:54;23.10;19.90
2825;DHT22;1420;51.324;12.344;2023-06-04T15:02:22;23.10;19.70
2825;DHT22;1420;51.324;12.344;2023-06-04T15:04:49;23.00;19.70
2825;DHT22;1420;51.324;12.344;2023-06-04T15:07:17;23.10;19.90
2825;DHT22;1420;51.324;12.344;2023-06-04T15:09:44;22.90;19.40
2825;DHT22;1420;51.324;12.344;2023-06-04T15:12:11;22.80;19.20
2825;DHT22;1420;51.324;12.344;2023-06-04T15:14:39;22.90;19.90
2825;DHT22;1420;51.324;12.344;2023-06-04T15:17:06;22.80;19.80
2825;DHT22;1420;51.324;12.344;2023-06-04T15:19:34;23.00;20.10
2825;DHT22;1420;51.324;12.344;2023-06-04T15:22:01;23.00;19.90
2825;DHT22;1420;51.324;12.344;2023-06-04T15:24:28;22.90;19.80
2825;DHT22;1420;51.324;12.344;2023-06-04T15:26:55;23.00;18.70
2825;DHT22;1420;51.324;12.344;2023-06-04T15:29:22;22.90;19.70
2825;DHT22;1420;51.324;12.344;2023-06-04T15:31:51;22.80;19.40
2825;DHT22;1420;51.324;12.344;2023-06-04T15:34:19;22.80;19.30
2825;DHT22;1420;51.324;12.344;2023-06-04T15:36:46;22.90;19.70
2825;DHT22;1420;51.324;12.344;2023-06-04T15:39:13;23.10;19.40
2825;DHT22;1420;51.324;12.344;2023-06-04T15:41:41;22.60;19.20
2825;DHT22;1420;51.324;12.344;2023-06-04T15:44:09;22.60;20.20
2825;DHT22;1420;51.324;12.344;2023-06-04T15:46:36;22.50;20.20
2825;DHT22;1420;51.324;12.344;2023-06-04T15:49:05;22.50;19.70
2825;DHT22;1420;51.324;12.344;2023-06-04T15:51:32;22.50;19.10
2825;DHT22;1420;51.324;12.344;2023-06-04T15:53:59;22.60;19.20